Terminal Aerodrome Forecast
Issued by NWS

Home | Current Version | Previous Version | Text Only | Print | Product List | Glossary On
Versions: 1 2 3 4 5 6 7 8 9 10 11 12 13 14 15 16 17 18 19 20
000
FTUS43 KICT 271044 AAA
TAFCNU
TAF AMD
KCNU 271044Z 2711/2806 14008KT P6SM VCTS BKN040CB
      TEMPO 2711/2713 1SM +TSRA OVC040CB
     FM271300 16009KT P6SM VCTS BKN040CB
     FM271600 17014KT P6SM SCT080
     FM280100 16010KT P6SM SCT150=

USA.gov is the U.S. government's official web portal to all federal, state and local government web resources and services.